Flight Track Log - Related Links

Times and Time Zones

All times are in EDT time to prevent confusion due to time zone crossing. See the SWA2169 flight status page for this flight to view local times or setup timezone preferences in your user account.

Time Position Orientation Groundspeed Altitude Reporting Facility
EDT Latitude Longitude Course Direction KTS MPH feet Rate Location/Type
Sat 05:16:44 PM 33.4333 -112.0333 253° West 173 199 2,100  Level Phoenix TRACON
Sat 05:17:38 PM 33.4167 -112.1000 253° West 216 249 3,000 1,789 Climbing Phoenix TRACON
Sat 05:18:38 PM 33.4000 -112.1667 253° West 237 273 5,500 2,241 Climbing Phoenix TRACON
Sat 05:19:01 PM 33.3772 -112.1842 213° Southwest 239 275 6,100 1,906 Climbing Albuquerque Center
Sat 05:20:03 PM 33.3375 -112.1247 129° Southeast 274 315 8,200 2,195 Climbing Albuquerque Center
Sat 05:21:04 PM 33.3231 -112.0319 101° East 286 329 10,600 1,707 Climbing Albuquerque Center
Sat 05:22:06 PM 33.3111 -111.9236 97° East 335 386 11,700 1,707 Climbing Albuquerque Center
Sat 05:23:07 PM 33.2944 -111.8050 100° East 361 415 14,100 2,115 Climbing Albuquerque Center
Sat 05:24:08 PM 33.2833 -111.6786 96° East 382 440 16,000 2,195 Climbing Albuquerque Center
Sat 05:25:10 PM 33.2631 -111.5208 99° East 402 463 18,600 2,244 Climbing Albuquerque Center
Sat 05:26:11 PM 33.2664 -111.3853 88° East 414 476 20,600 1,820 Climbing Albuquerque Center
Sat 05:27:12 PM 33.2722 -111.2469 87° East 420 483 22,300 1,512 Climbing Albuquerque Center
Sat 05:28:14 PM 33.2764 -111.1028 88° East 436 502 23,700 1,317 Climbing Albuquerque Center
Sat 05:29:15 PM 33.2819 -110.9528 87° East 450 518 25,000 1,268 Climbing Albuquerque Center
Sat 05:30:17 PM 33.2875 -110.7989 87° East 461 531 26,300 1,317 Climbing Albuquerque Center
Sat 05:31:18 PM 33.2944 -110.6214 87° East 474 545 27,700 1,230 Climbing Albuquerque Center
Sat 05:32:19 PM 33.2989 -110.4617 88° East 482 555 28,800 927 Climbing Albuquerque Center
Sat 05:33:21 PM 33.3033 -110.2983 88° East 491 565 29,600 878 Climbing Albuquerque Center
Sat 05:34:22 PM 33.3067 -110.1303 89° East 504 580 30,600 934 Climbing Albuquerque Center
Sat 05:35:23 PM 33.3106 -109.9606 88° East 511 588 31,500 878 Climbing Albuquerque Center
Sat 05:36:25 PM 33.3156 -109.7892 88° East 517 595 32,400 1,073 Climbing Albuquerque Center
Sat 05:37:26 PM 33.3214 -109.5811 88° East 523 602 33,700 1,230 Climbing Albuquerque Center
Sat 05:38:27 PM 33.3256 -109.4108 88° East 518 596 34,900 634 Climbing Albuquerque Center
Sat 05:39:29 PM 33.3292 -109.2406 88° East 514 592 35,000 49 Climbing Albuquerque Center
Sat 05:40:30 PM 33.3333 -109.0703 88° East 512 589 35,000  Level Albuquerque Center
Sat 05:41:32 PM 33.3356 -108.9011 89° East 508 585 35,000  Level Albuquerque Center
Sat 05:42:33 PM 33.3389 -108.7308 89° East 509 586 35,000  Level Albuquerque Center
Sat 05:43:35 PM 33.3408 -108.5611 89° East 511 588 35,000  Level Albuquerque Center
Sat 05:44:36 PM 33.3436 -108.3917 89° East 511 588 35,000  Level Albuquerque Center
Sat 05:45:37 PM 33.3447 -108.2225 90° East 511 588 35,000  Level Albuquerque Center
Sat 05:46:39 PM 33.3475 -108.0336 89° East 514 592 35,000  Level Albuquerque Center
Sat 05:47:40 PM 33.3483 -107.8617 90° East 515 593 35,000  Level Albuquerque Center
Sat 05:48:42 PM 33.3492 -107.6914 90° East 512 589 35,000  Level Albuquerque Center
Sat 05:49:43 PM 33.3514 -107.5214 89° East 510 587 35,000  Level Albuquerque Center
Sat 05:50:45 PM 33.3622 -107.3558 85° East 497 572 35,000  Level Albuquerque Center
Sat 05:51:46 PM 33.4011 -107.1542 77° East 510 587 35,000  Level Albuquerque Center
Sat 05:52:47 PM 33.4381 -106.9933 75° East 503 579 35,000  Level Albuquerque Center
Sat 05:53:49 PM 33.4744 -106.8281 75° East 508 585 35,000  Level Albuquerque Center
Sat 05:54:50 PM 33.5100 -106.6644 75° East 508 585 35,000  Level Albuquerque Center
Sat 05:55:52 PM 33.5467 -106.5008 75° East 508 585 35,000  Level Albuquerque Center
Sat 05:56:53 PM 33.5836 -106.3392 75° East 505 581 35,000  Level Albuquerque Center
Sat 05:57:54 PM 33.6167 -106.1758 76° East 504 580 35,000  Level Albuquerque Center
Sat 05:58:56 PM 33.6367 -106.0083 82° East 506 582 35,000  Level Albuquerque Center
Sat 05:59:57 PM 33.6567 -105.8408 82° East 507 583 35,000  Level Albuquerque Center
Sat 06:00:58 PM 33.6744 -105.6756 83° East 501 577 35,000  Level Albuquerque Center
Sat 06:02:00 PM 33.6847 -105.4694 87° East 501 577 35,000  Level Albuquerque Center
Sat 06:03:01 PM 33.6964 -105.3017 85° East 505 581 35,000  Level Albuquerque Center
Sat 06:04:02 PM 33.7061 -105.1353 86° East 500 575 35,000  Level Albuquerque Center
Sat 06:05:03 PM 33.7161 -104.9692 86° East 499 574 35,000  Level Albuquerque Center
Sat 06:06:05 PM 33.7258 -104.7892 86° East 501 577 35,000  Level Albuquerque Center
Sat 06:07:06 PM 33.7358 -104.6228 86° East 500 575 35,000  Level Albuquerque Center
Sat 06:08:07 PM 33.7425 -104.4581 87° East 495 570 35,000  Level Albuquerque Center
Sat 06:09:09 PM 33.7264 -104.2919 97° East 500 575 35,000  Level Albuquerque Center
Sat 06:10:10 PM 33.7114 -104.1125 96° East 501 577 35,000  Level Albuquerque Center
Sat 06:11:11 PM 33.6964 -103.9469 96° East 499 574 35,000  Level Albuquerque Center
Sat 06:12:13 PM 33.6825 -103.7806 96° East 501 577 35,000  Level Albuquerque Center
Sat 06:13:14 PM 33.6664 -103.6400 98° East 500 575 35,000  Level Albuquerque Center
Sat 06:14:15 PM 33.6481 -103.4428 96° East 498 573 35,000  Level Albuquerque Center
Sat 06:15:17 PM 33.6336 -103.2775 96° East 497 572 35,000  Level Albuquerque Center
Sat 06:16:18 PM 33.6164 -103.1131 97° East 497 572 35,000  Level Albuquerque Center
Sat 06:17:20 PM 33.6006 -102.9478 97° East 498 573 35,000  Level Albuquerque Center
Sat 06:18:21 PM 33.5842 -102.7833 97° East 496 571 35,000  Level Albuquerque Center
Sat 06:18:37 PM 33.5783 -102.7261 97° East 500 575 35,000  Level Fort Worth Center
Sat 06:19:37 PM 33.5614 -102.5831 98° East 488 562 35,000  Level Fort Worth Center
Sat 06:20:37 PM 33.5439 -102.4028 97° East 489 563 35,000  Level Fort Worth Center
Sat 06:21:37 PM 33.5286 -102.2597 97° East 489 563 35,000  Level Fort Worth Center
Sat 06:22:37 PM 33.5081 -102.0819 98° East 489 563 35,000  Level Fort Worth Center
Sat 06:23:37 PM 33.4950 -101.9292 96° East 489 563 35,000  Level Fort Worth Center
Sat 06:24:37 PM 33.4719 -101.7539 99° East 495 570 35,000  Level Fort Worth Center
Sat 06:25:37 PM 33.4567 -101.5936 96° East 489 563 35,000  Level Fort Worth Center
Sat 06:26:37 PM 33.4411 -101.4311 97° East 489 563 35,000  Level Fort Worth Center
Sat 06:27:37 PM 33.4233 -101.2661 97° East 489 563 35,000  Level Fort Worth Center
Sat 06:28:37 PM 33.4072 -101.1036 97° East 489 563 35,000  Level Fort Worth Center
Sat 06:29:37 PM 33.3864 -100.9586 100° East 484 557 35,000  Level Fort Worth Center
Sat 06:30:37 PM 33.3678 -100.7986 98° East 484 557 35,000  Level Fort Worth Center
Sat 06:31:37 PM 33.3514 -100.6339 97° East 489 563 35,000  Level Fort Worth Center
Sat 06:32:37 PM 33.3264 -100.4589 100° East 489 563 35,000  Level Fort Worth Center
Sat 06:33:37 PM 33.3094 -100.2942 97° East 489 563 35,000  Level Fort Worth Center
Sat 06:34:37 PM 33.2881 -100.1319 99° East 489 563 35,000  Level Fort Worth Center
Sat 06:35:37 PM 33.2706 -99.9725 97° East 489 563 35,000  Level Fort Worth Center
Sat 06:36:37 PM 33.2508 -99.8106 98° East 489 563 35,000  Level Fort Worth Center
Sat 06:37:37 PM 33.2308 -99.6536 99° East 484 557 35,000  Level Fort Worth Center
Sat 06:38:37 PM 33.2083 -99.4964 100° East 484 557 35,000  Level Fort Worth Center
Sat 06:39:37 PM 33.1903 -99.3347 98° East 484 557 35,000  Level Fort Worth Center
Sat 06:40:37 PM 33.1675 -99.1778 100° East 484 557 35,000  Level Fort Worth Center
Sat 06:41:37 PM 33.1467 -99.0211 99° East 484 557 35,000  Level Fort Worth Center
Sat 06:42:37 PM 33.1256 -98.8644 99° East 484 557 35,000  Level Fort Worth Center
Sat 06:43:37 PM 33.1044 -98.7031 99° East 484 557 35,000  Level Fort Worth Center
Sat 06:44:37 PM 33.0808 -98.5464 100° East 484 557 35,000  Level Fort Worth Center
Sat 06:45:37 PM 33.0633 -98.3950 98° East 474 545 35,000  Level Fort Worth Center
Sat 06:46:37 PM 33.0394 -98.2386 100° East 474 545 35,000  Level Fort Worth Center
Sat 06:47:37 PM 33.0194 -98.0800 99° East 474 545 35,000  Level Fort Worth Center
Sat 06:48:37 PM 32.9994 -97.9186 98° East 474 545 35,000  Level Fort Worth Center
Sat 06:49:37 PM 32.9769 -97.7675 100° East 474 545 35,000  Level Fort Worth Center
Sat 06:50:37 PM 32.9522 -97.6089 100° East 479 551 35,000  Level Fort Worth Center
Sat 06:51:37 PM 32.9294 -97.4581 100° East 473 544 35,000 50 Level Fort Worth Center
Sat 06:52:37 PM 32.9064 -97.2972 100° East 480 552 35,100 300 Climbing Fort Worth Center
Sat 06:53:37 PM 32.8936 -97.1364 95° East 491 565 35,600 700 Climbing Fort Worth Center
Sat 06:54:37 PM 32.9100 -96.9803 83° East 487 560 36,500 700 Climbing Fort Worth Center
Sat 06:55:37 PM 32.9239 -96.8367 83° East 482 555 37,000 250 Climbing Fort Worth Center
Sat 06:56:37 PM 32.9397 -96.6758 83° East 482 555 37,000  Level Fort Worth Center
Sat 06:57:37 PM 32.9533 -96.5222 84° East 477 549 37,000  Level Fort Worth Center
Sat 06:58:37 PM 32.9689 -96.3636 83° East 477 549 37,000  Level Fort Worth Center
Sat 06:59:37 PM 33.0008 -96.2169 75° East 467 537 37,000  Level Fort Worth Center
Sat 07:00:37 PM 33.0244 -96.0656 79° East 467 537 37,000  Level Fort Worth Center
Sat 07:01:37 PM 33.0019 -95.9097 100° East 461 531 37,000  Level Fort Worth Center
Sat 07:02:37 PM 32.9875 -95.7564 96° East 461 531 37,000  Level Fort Worth Center
Sat 07:03:37 PM 33.0167 -95.6025 77° East 456 525 37,000  Level Fort Worth Center
Sat 07:04:37 PM 33.0456 -95.4383 78° East 456 525 37,000  Level Fort Worth Center
Sat 07:05:37 PM 33.0700 -95.2864 79° East 461 531 37,000  Level Fort Worth Center
Sat 07:06:37 PM 33.0839 -95.1275 84° East 472 543 37,000  Level Fort Worth Center
Sat 07:07:37 PM 33.0956 -94.9686 85° East 472 543 37,000  Level Fort Worth Center
Sat 07:08:37 PM 33.1050 -94.8069 86° East 478 550 37,000  Level Fort Worth Center
Sat 07:09:37 PM 33.1161 -94.6506 85° East 478 550 37,000  Level Fort Worth Center
Sat 07:10:37 PM 33.1294 -94.4939 84° East 478 550 37,000  Level Fort Worth Center
Sat 07:11:37 PM 33.1422 -94.3322 85° East 478 550 37,000  Level Fort Worth Center
Sat 07:12:37 PM 33.1531 -94.1781 85° East 478 550 37,000  Level Fort Worth Center
Sat 07:13:37 PM 33.1614 -94.0239 86° East 473 544 37,000  Level Fort Worth Center
Sat 07:14:37 PM 33.1736 -93.8619 85° East 473 544 37,000  Level Fort Worth Center
Sat 07:15:37 PM 33.1858 -93.7053 85° East 479 551 37,000  Level Fort Worth Center
Sat 07:16:37 PM 33.2000 -93.5556 84° East 473 544 37,000  Level Fort Worth Center
Sat 07:17:37 PM 33.2119 -93.4036 85° East 468 539 37,000  Level Fort Worth Center
Sat 07:18:37 PM 33.2217 -93.2542 86° East 462 532 37,000  Level Fort Worth Center
Sat 07:19:37 PM 33.2333 -93.0997 85° East 462 532 37,000  Level Fort Worth Center
Sat 07:20:37 PM 33.2425 -92.9478 86° East 462 532 37,000  Level Fort Worth Center
Sat 07:22:32 PM 33.3039 -92.6764 75° East 448 516 37,000  Level Memphis Center
Sat 07:23:32 PM 33.3833 -92.5564 52° Northeast 443 510 37,000  Level Memphis Center
Sat 07:24:32 PM 33.4583 -92.4389 53° Northeast 443 510 37,000  Level Memphis Center
Sat 07:25:32 PM 33.5375 -92.3186 52° Northeast 455 524 37,000  Level Memphis Center
Sat 07:26:32 PM 33.6186 -92.1958 52° Northeast 455 524 37,000  Level Memphis Center
Sat 07:27:32 PM 33.6975 -92.0775 51° Northeast 460 529 37,000  Level Memphis Center
Sat 07:28:32 PM 33.7764 -91.9542 52° Northeast 460 529 37,000  Level Memphis Center
Sat 07:29:32 PM 33.8572 -91.8331 51° Northeast 460 529 37,000  Level Memphis Center
Sat 07:30:32 PM 33.9167 -91.7364 53° Northeast 455 524 37,000  Level Memphis Center
Sat 07:31:32 PM 34.0103 -91.5900 52° Northeast 461 531 37,000  Level Memphis Center
Sat 07:32:32 PM 34.0886 -91.4683 52° Northeast 454 522 37,000  Level Memphis Center
Sat 07:33:32 PM 34.1647 -91.3436 54° Northeast 459 528 37,000  Level Memphis Center
Sat 07:34:32 PM 34.2428 -91.2214 52° Northeast 459 528 37,000  Level Memphis Center
Sat 07:35:32 PM 34.3208 -91.1017 52° Northeast 459 528 37,000  Level Memphis Center
Sat 07:36:32 PM 34.3986 -90.9789 52° Northeast 459 528 37,000  Level Memphis Center
Sat 07:37:32 PM 34.4786 -90.8536 52° Northeast 459 528 37,000  Level Memphis Center
Sat 07:38:32 PM 34.5519 -90.7303 54° Northeast 454 522 37,000  Level Memphis Center
Sat 07:39:32 PM 34.6189 -90.6219 53° Northeast 454 522 37,000  Level Memphis Center
Sat 07:40:32 PM 34.6964 -90.4986 53° Northeast 454 522 37,000  Level Memphis Center
Sat 07:41:32 PM 34.7717 -90.3772 53° Northeast 454 522 37,000  Level Memphis Center
Sat 07:42:32 PM 34.8467 -90.2558 53° Northeast 459 528 37,000  Level Memphis Center
Sat 07:43:32 PM 34.9236 -90.1367 52° Northeast 454 522 37,000  Level Memphis Center
Sat 07:44:32 PM 35.0131 -90.0047 50° Northeast 454 522 37,000  Level Memphis Center
Sat 07:45:32 PM 35.1150 -89.9153 36° Northeast 447 514 37,000  Level Memphis Center
Sat 07:46:32 PM 35.2211 -89.8361 31° Northeast 447 514 37,000  Level Memphis Center
Sat 07:47:32 PM 35.3292 -89.7564 31° Northeast 447 514 37,000  Level Memphis Center
Sat 07:48:32 PM 35.4394 -89.6742 31° Northeast 454 522 37,000  Level Memphis Center
Sat 07:49:32 PM 35.5453 -89.5942 32° Northeast 454 522 37,000  Level Memphis Center
Sat 07:50:32 PM 35.6386 -89.5242 31° Northeast 448 516 37,000  Level Memphis Center
Sat 07:51:32 PM 35.7403 -89.4464 32° Northeast 442 509 37,000  Level Memphis Center
Sat 07:52:32 PM 35.8481 -89.3658 31° Northeast 442 509 37,000  Level Memphis Center
Sat 07:53:32 PM 35.9539 -89.2850 32° Northeast 442 509 37,000  Level Memphis Center
Sat 07:54:32 PM 36.0572 -89.2067 31° Northeast 442 509 37,000  Level Memphis Center
Sat 07:55:32 PM 36.1650 -89.1231 32° Northeast 449 517 37,000  Level Memphis Center
Sat 07:56:32 PM 36.2744 -89.0414 31° Northeast 449 517 37,000  Level Memphis Center
Sat 07:57:32 PM 36.3842 -88.9597 31° Northeast 449 517 37,000  Level Memphis Center
Sat 07:58:32 PM 36.4917 -88.8806 31° Northeast 449 517 37,000  Level Memphis Center
Sat 07:59:32 PM 36.5989 -88.7983 32° Northeast 449 517 37,000  Level Memphis Center
Sat 08:00:32 PM 36.7044 -88.7214 30° Northeast 444 511 37,000  Level Memphis Center
Sat 08:01:32 PM 36.8136 -88.6389 31° Northeast 444 511 37,000  Level Memphis Center
Sat 08:02:32 PM 36.9208 -88.5561 32° Northeast 444 511 37,000  Level Memphis Center
Sat 08:03:32 PM 37.0281 -88.4756 31° Northeast 444 511 37,000  Level Memphis Center
Sat 08:04:32 PM 37.1308 -88.3950 32° Northeast 444 511 37,000  Level Memphis Center
Sat 08:05:32 PM 37.2400 -88.3117 31° Northeast 444 511 37,000  Level Memphis Center
Sat 08:06:56 PM 37.3906 -88.1864 33° Northeast 456 525 37,000  Level Indianapolis Center
Sat 08:07:57 PM 37.5011 -88.1008 32° Northeast 458 527 37,000  Level Indianapolis Center
Sat 08:08:58 PM 37.6097 -88.0139 32° Northeast 456 525 37,000  Level Indianapolis Center
Sat 08:09:59 PM 37.7186 -87.9292 32° Northeast 456 525 37,000  Level Indianapolis Center
Sat 08:11:00 PM 37.8389 -87.8339 32° Northeast 458 527 37,000  Level Indianapolis Center
Sat 08:12:02 PM 37.9478 -87.7472 32° Northeast 460 529 37,000  Level Indianapolis Center
Sat 08:13:03 PM 38.0622 -87.6764 26° Northeast 454 522 37,000  Level Indianapolis Center
Sat 08:14:04 PM 38.1758 -87.6056 26° Northeast 451 519 37,000  Level Indianapolis Center
Sat 08:15:05 PM 38.2908 -87.5331 26° Northeast 455 524 37,000 -197 Level Indianapolis Center
Sat 08:16:06 PM 38.4056 -87.4600 27° Northeast 454 522 36,600 -1,279 Descending Indianapolis Center
Sat 08:17:07 PM 38.5175 -87.3881 27° Northeast 446 513 34,400 -2,049 Descending Indianapolis Center
Sat 08:18:09 PM 38.6272 -87.3175 27° Northeast 437 503 32,400 -1,951 Descending Indianapolis Center
Sat 08:19:10 PM 38.7378 -87.2461 27° Northeast 439 505 30,400 -1,672 Descending Indianapolis Center
Sat 08:20:11 PM 38.8517 -87.1728 27° Northeast 452 520 29,000 -689 Descending Indianapolis Center
Sat 08:21:12 PM 38.9608 -87.1019 27° Northeast 440 506 29,000  Level Indianapolis Center
Sat 08:22:13 PM 39.0711 -87.0306 27° Northeast 439 505 29,000 -98 Level Indianapolis Center
Sat 08:23:14 PM 39.1908 -86.9522 27° Northeast 460 529 28,800 -590 Descending Indianapolis Center
Sat 08:24:15 PM 39.3075 -86.8756 27° Northeast 470 541 27,800 -976 Descending Indianapolis Center
Sat 08:25:17 PM 39.4206 -86.8003 27° Northeast 459 528 26,800 -976 Descending Indianapolis Center
Sat 08:26:18 PM 39.5328 -86.7272 27° Northeast 451 519 25,800 -1,033 Descending Indianapolis Center
Sat 08:27:19 PM 39.6444 -86.6531 27° Northeast 448 516 24,700 -885 Descending Indianapolis Center
Sat 08:28:20 PM 39.7553 -86.5792 27° Northeast 445 512 24,000 -344 Descending Indianapolis Center
Sat 08:29:21 PM 39.8656 -86.5056 27° Northeast 437 503 24,000  Level Indianapolis Center
Sat 08:30:22 PM 39.9775 -86.4306 27° Northeast 446 513 24,000  Level Indianapolis Center
Sat 08:31:23 PM 40.0928 -86.3728 21° North 445 512 24,000 -54 Level Indianapolis Center
Sat 08:32:13 PM 40.1875 -86.3756 359° North 430 495 23,900 -595 Descending Chicago Center
Sat 08:33:14 PM 40.3058 -86.3850 357° North 426 490 22,900 -1,073 Descending Chicago Center
Sat 08:34:16 PM 40.4425 -86.3942 357° North 413 475 21,700 -1,073 Descending Chicago Center
Sat 08:35:17 PM 40.5519 -86.4008 357° North 399 459 20,700 -1,220 Descending Chicago Center
Sat 08:36:19 PM 40.6586 -86.4083 357° North 388 447 19,200 -1,707 Descending Chicago Center
Sat 08:37:20 PM 40.7522 -86.4119 358° North 370 426 17,200 -2,000 Descending Chicago Center
Sat 08:38:22 PM 40.8536 -86.4194 357° North 363 418 15,100 -2,098 Descending Chicago Center
Sat 08:39:23 PM 40.9533 -86.4253 357° North 357 411 12,900 -2,000 Descending Chicago Center
Sat 08:40:25 PM 41.0619 -86.4547 348° North 340 391 11,000 -968 Descending Chicago Center
Sat 08:41:27 PM 41.1219 -86.5442 312° West 320 368 10,900 -313 Descending Chicago Center
Sat 08:43:37 PM 41.2272 -86.7122 310° West 290 334 10,000 -293 Descending Indianapolis Center
Sat 08:44:31 PM 41.2708 -86.7772 312° West 256 295 10,000  Level Chicago Center

Login

Don't have an account? Register now (free) for customized features, flight alerts, and more!